Time;durP1;ratioP1;P1;durP2;ratioP2;P2;SDS_P1;SDS_P2;PMS_P1;PMS_P2;Temp;Humidity;BMP_temperature;BMP_pressure;BME280_temperature;BME280_humidity;BME280_pressure;Samples;Min_cycle;Max_cycle;Signal;HPM_P1;HPM_P2
2022/12/11 00:01:22;;;;;;;114.03;48.90;;;;;;;-0.59;100.00;100996.16;5265755;28;20531;-85
2022/12/11 00:03:53;;;;;;;110.80;47.50;;;;;;;-0.56;100.00;100993.72;5283690;28;20362;-85
2022/12/11 00:06:24;;;;;;;105.13;46.40;;;;;;;-0.55;100.00;100997.13;5283856;28;20037;-84
2022/12/11 00:08:56;;;;;;;101.80;46.13;;;;;;;-0.56;100.00;100996.28;5283156;28;20024;-85
2022/12/11 00:11:27;;;;;;;109.40;45.37;;;;;;;-0.55;100.00;100989.44;5287410;28;20036;-85
2022/12/11 00:13:59;;;;;;;110.67;48.63;;;;;;;-0.51;100.00;100985.34;5288153;28;20032;-85
2022/12/11 00:16:30;;;;;;;114.43;52.50;;;;;;;-0.51;100.00;100993.88;5287766;28;20032;-85
2022/12/11 00:19:02;;;;;;;102.17;47.47;;;;;;;-0.51;100.00;100995.56;5288120;28;20047;-85
2022/12/11 00:21:33;;;;;;;108.20;47.70;;;;;;;-0.53;100.00;100990.41;5269879;28;20309;-85
2022/12/11 00:24:05;;;;;;;109.40;45.73;;;;;;;-0.50;100.00;100993.06;5286967;28;20367;-85
2022/12/11 00:26:37;;;;;;;116.23;49.00;;;;;;;-0.51;100.00;100988.75;5287073;28;20040;-85
2022/12/11 00:29:13;;;;;;;109.00;48.83;;;;;;;-0.48;100.00;100986.31;5269864;28;20359;-84
2022/12/11 00:31:44;;;;;;;113.28;51.13;;;;;;;-0.46;100.00;100992.34;5287319;28;20043;-85
2022/12/11 00:34:16;;;;;;;119.90;55.37;;;;;;;-0.47;100.00;100989.72;5287331;28;20056;-84
2022/12/11 00:36:47;;;;;;;108.50;48.70;;;;;;;-0.45;100.00;100990.66;5287039;28;20167;-84
2022/12/11 00:39:18;;;;;;;115.10;48.83;;;;;;;-0.44;100.00;100990.69;5269495;28;20085;-84
2022/12/11 00:41:50;;;;;;;119.97;64.07;;;;;;;-0.43;100.00;100995.03;5269072;28;20124;-85
2022/12/11 00:44:21;;;;;;;105.93;48.93;;;;;;;-0.44;100.00;100990.69;5269152;28;20093;-84
2022/12/11 00:46:53;;;;;;;95.60;45.23;;;;;;;-0.45;100.00;100986.41;5287230;28;20024;-86
2022/12/11 00:49:24;;;;;;;101.93;46.27;;;;;;;-0.42;100.00;100993.31;5287082;28;20127;-86
2022/12/11 00:51:55;;;;;;;91.93;40.67;;;;;;;-0.41;100.00;100995.94;5287726;28;20448;-85
2022/12/11 00:54:27;;;;;;;99.10;52.27;;;;;;;-0.39;100.00;100990.88;5294319;28;20044;-84
2022/12/11 00:56:58;;;;;;;91.47;44.90;;;;;;;-0.38;100.00;100988.38;5300644;28;20021;-85
2022/12/11 00:59:29;;;;;;;96.50;42.50;;;;;;;-0.39;100.00;100980.63;5280368;28;20036;-85
2022/12/11 01:02:01;;;;;;;93.93;41.30;;;;;;;-0.40;100.00;100982.31;5296894;28;20037;-85
2022/12/11 01:04:35;;;;;;;86.97;40.40;;;;;;;-0.37;100.00;100992.69;5289796;28;20033;-88
2022/12/11 01:07:06;;;;;;;86.82;38.78;;;;;;;-0.39;100.00;100984.06;5286975;28;20043;-88
2022/12/11 01:12:28;;;;;;;84.20;38.80;;;;;;;-0.34;100.00;100983.34;5287232;28;20091;-87
2022/12/11 01:14:59;;;;;;;78.03;38.00;;;;;;;-0.37;100.00;100995.25;5286758;28;20178;-86
2022/12/11 01:17:30;;;;;;;86.13;41.57;;;;;;;-0.34;100.00;100983.34;5286630;28;20029;-85
2022/12/11 01:20:03;;;;;;;83.80;40.77;;;;;;;-0.34;100.00;100981.66;5286127;28;20436;-85
2022/12/11 01:22:34;;;;;;;77.38;37.42;;;;;;;-0.31;100.00;100988.59;5285379;28;20027;-86
2022/12/11 01:25:08;;;;;;;84.37;39.27;;;;;;;-0.30;100.00;100990.34;5285635;28;20024;-86
2022/12/11 01:27:39;;;;;;;108.25;54.28;;;;;;;-0.30;100.00;100990.34;5286142;28;20029;-86
2022/12/11 01:30:12;;;;;;;76.93;39.57;;;;;;;-0.28;100.00;100993.81;5285614;28;20059;-86
2022/12/11 01:32:43;;;;;;;74.25;36.92;;;;;;;-0.28;100.00;100996.38;5286030;28;20036;-86
2022/12/11 01:35:15;;;;;;;72.13;35.87;;;;;;;-0.25;100.00;100999.03;5285996;28;20032;-85
2022/12/11 01:37:47;;;;;;;74.78;37.58;;;;;;;-0.26;100.00;100994.72;5285847;28;20082;-85
2022/12/11 01:40:20;;;;;;;72.97;33.47;;;;;;;-0.29;100.00;100990.38;5267359;28;20059;-85
2022/12/11 01:42:51;;;;;;;60.17;32.28;;;;;;;-0.29;100.00;100987.84;5286115;28;20718;-85
2022/12/11 01:45:37;;;;;;;64.80;35.37;;;;;;;-0.26;100.00;100989.59;5285970;28;20028;-86
2022/12/11 01:48:20;;;;;;;65.80;34.78;;;;;;;-0.24;100.00;100981.16;5285578;28;20098;-86
2022/12/11 01:50:55;;;;;;;71.63;36.75;;;;;;;-0.26;100.00;100982.81;5285526;28;20082;-85
2022/12/11 01:53:35;;;;;;;70.68;33.40;;;;;;;-0.26;100.00;100987.94;5285753;28;20509;-86
2022/12/11 01:56:09;;;;;;;72.57;35.35;;;;;;;-0.26;100.00;100982.81;5283903;28;20041;-84
2022/12/11 01:58:50;;;;;;;75.00;35.83;;;;;;;-0.26;100.00;100972.56;5289546;28;20487;-83
2022/12/11 02:01:31;;;;;;;72.53;37.30;;;;;;;-0.23;100.00;100976.91;5302344;28;20059;-84
2022/12/11 02:04:03;;;;;;;68.50;35.08;;;;;;;-0.25;100.00;100976.84;5293858;28;20025;-83
2022/12/11 02:06:41;;;;;;;61.40;33.55;;;;;;;-0.24;100.00;100975.16;5295265;28;20036;-86
2022/12/11 02:09:15;;;;;;;70.85;36.15;;;;;;;-0.25;100.00;100981.97;5293511;28;20074;-85
2022/12/11 02:11:49;;;;;;;72.32;36.25;;;;;;;-0.23;100.00;100982.03;5301998;28;20028;-84
2022/12/11 02:14:50;;;;;;;68.40;35.75;;;;;;;-0.21;100.00;100977.81;5300939;28;20097;-84
2022/12/11 02:17:30;;;;;;;65.88;34.22;;;;;;;-0.22;100.00;100979.53;5297027;28;20426;-84
2022/12/11 02:20:11;;;;;;;59.88;33.53;;;;;;;-0.21;100.00;100976.16;5295350;28;20032;-84
2022/12/11 02:23:17;;;;;;;64.30;33.15;;;;;;;-0.23;100.00;100972.63;5293498;28;20407;-84
2022/12/11 02:26:07;;;;;;;58.30;31.83;;;;;;;-0.23;100.00;100976.91;5291893;28;20087;-84
2022/12/11 02:28:38;;;;;;;67.32;32.90;;;;;;;-0.22;100.00;100968.41;5289308;28;20028;-83
2022/12/11 02:31:20;;;;;;;61.10;31.83;;;;;;;-0.21;100.00;100970.13;5288829;28;20128;-84
2022/12/11 02:34:16;;;;;;;57.70;30.23;;;;;;;-0.19;100.00;100963.41;5269022;28;20499;-83
2022/12/11 02:36:55;;;;;;;56.47;30.15;;;;;;;-0.22;100.00;100966.72;5287093;28;20095;-83
2022/12/11 02:39:29;;;;;;;56.22;28.85;;;;;;;-0.18;100.00;100965.13;5286403;28;20033;-84
2022/12/11 02:42:02;;;;;;;51.70;28.50;;;;;;;-0.19;100.00;100968.53;5286146;28;20414;-84
2022/12/11 02:44:34;;;;;;;49.67;29.17;;;;;;;-0.21;100.00;100968.47;5286592;28;20119;-84
2022/12/11 02:47:10;;;;;;;48.83;29.52;;;;;;;-0.19;100.00;100969.38;5286173;28;20469;-84
2022/12/11 02:49:46;;;;;;;51.30;28.75;;;;;;;-0.21;100.00;100965.91;5284641;28;20468;-83
2022/12/11 02:52:21;;;;;;;45.15;26.60;;;;;;;-0.19;100.00;100963.41;5285326;28;20444;-84
2022/12/11 02:54:55;;;;;;;46.80;27.38;;;;;;;-0.21;100.00;100970.13;5285568;28;20032;-84
2022/12/11 02:57:34;;;;;;;48.22;26.88;;;;;;;-0.21;100.00;100967.56;5285732;28;20107;-85
2022/12/11 03:00:07;;;;;;;45.50;25.58;;;;;;;-0.18;100.00;100970.25;5286480;28;20391;-85
2022/12/11 03:02:40;;;;;;;43.47;25.83;;;;;;;-0.21;100.00;100968.47;5291551;28;20032;-83
2022/12/11 03:05:12;;;;;;;39.35;23.80;;;;;;;-0.19;100.00;100961.69;5276594;28;20042;-83
2022/12/11 03:07:44;;;;;;;40.22;24.60;;;;;;;-0.20;100.00;100962.50;5290638;28;20029;-84
2022/12/11 03:10:20;;;;;;;38.10;23.20;;;;;;;-0.21;100.00;100965.00;5288525;28;20031;-83
2022/12/11 03:12:54;;;;;;;36.20;23.17;;;;;;;-0.25;100.00;100961.47;5285991;28;20359;-82
2022/12/11 03:15:38;;;;;;;37.08;23.33;;;;;;;-0.23;100.00;100957.28;5284464;28;20349;-83
2022/12/11 03:18:37;;;;;;;32.83;21.63;;;;;;;-0.21;100.00;100953.09;5284813;28;20447;-83
2022/12/11 03:21:17;;;;;;;31.60;21.33;;;;;;;-0.28;100.00;100943.44;5284505;28;20040;-83
2022/12/11 03:24:00;;;;;;;28.83;18.95;;;;;;;-0.29;100.00;100940.81;5266247;28;20028;-83
2022/12/11 03:26:38;;;;;;;26.08;17.38;;;;;;;-0.31;100.00;100951.03;5285201;28;20305;-83
2022/12/11 03:29:19;;;;;;;25.45;18.35;;;;;;;-0.28;100.00;100953.69;5284246;28;20025;-84
2022/12/11 03:31:58;;;;;;;28.73;18.00;;;;;;;-0.27;100.00;100949.47;5283915;28;20540;-83
2022/12/11 03:34:35;;;;;;;25.02;18.23;;;;;;;-0.25;100.00;100943.53;5284063;28;20125;-83
2022/12/11 03:37:09;;;;;;;29.25;19.52;;;;;;;-0.26;100.00;100946.94;5283607;28;20056;-82
2022/12/11 03:39:46;;;;;;;25.92;18.83;;;;;;;-0.25;100.00;100945.25;5283742;28;20029;-82
2022/12/11 03:42:20;;;;;;;27.90;18.90;;;;;;;-0.28;100.00;100943.44;5283822;28;20032;-82
2022/12/11 03:44:53;;;;;;;28.17;20.30;;;;;;;-0.28;100.00;100940.00;5285050;28;20034;-82
2022/12/11 03:47:27;;;;;;;26.77;18.90;;;;;;;-0.28;100.00;100945.13;5288132;28;20517;-83
2022/12/11 03:50:00;;;;;;;27.95;19.05;;;;;;;-0.34;100.00;100942.38;5287771;28;20067;-83
2022/12/11 03:52:32;;;;;;;28.77;19.50;;;;;;;-0.30;100.00;100939.09;5288172;28;20391;-83
2022/12/11 03:55:06;;;;;;;27.67;18.53;;;;;;;-0.31;100.00;100934.78;5287770;28;20056;-83
2022/12/11 03:57:38;;;;;;;27.85;19.33;;;;;;;-0.33;100.00;100923.63;5288204;28;20130;-83
2022/12/11 04:00:14;;;;;;;28.03;20.83;;;;;;;-0.31;100.00;100920.28;5288466;28;20108;-83
2022/12/11 04:03:11;;;;;;;24.95;19.05;;;;;;;-0.31;100.00;100921.97;5287923;28;20107;-83
2022/12/11 04:05:44;;;;;;;28.58;18.58;;;;;;;-0.34;100.00;100915.06;5288494;28;20036;-83
2022/12/11 04:08:17;;;;;;;27.88;19.10;;;;;;;-0.32;100.00;100917.66;5290155;28;20025;-84
2022/12/11 04:11:33;;;;;;;25.30;18.70;;;;;;;-0.28;100.00;100929.78;5271608;28;20040;-84
2022/12/11 04:13:41;;;;;;;29.27;19.98;;;;;;;-0.29;100.00;100925.47;5291108;28;20087;-84
2022/12/11 04:16:12;;;;;;;31.40;19.10;;;;;;;-0.29;100.00;100928.91;5306752;28;20036;-83
2022/12/11 04:24:24;;;;;;;26.23;18.08;;;;;;;-0.25;100.00;100928.19;5296670;28;20037;-84
2022/12/11 04:26:55;;;;;;;27.60;19.47;;;;;;;-0.27;100.00;100923.84;5287867;28;20029;-84
2022/12/11 04:29:26;;;;;;;27.77;18.37;;;;;;;-0.24;100.00;100929.03;5288121;28;20052;-85
2022/12/11 04:31:58;;;;;;;25.13;19.13;;;;;;;-0.25;100.00;100919.63;5287807;28;20044;-84
2022/12/11 04:34:29;;;;;;;26.33;18.57;;;;;;;-0.21;100.00;100919.78;5287807;28;20109;-85
2022/12/11 04:37:00;;;;;;;29.27;19.47;;;;;;;-0.23;100.00;100916.28;5269543;28;20063;-85
2022/12/11 04:39:32;;;;;;;25.80;18.23;;;;;;;-0.24;100.00;100911.09;5287224;28;20170;-86
2022/12/11 04:42:03;;;;;;;29.20;19.47;;;;;;;-0.26;100.00;100915.31;5287059;28;20036;-85
2022/12/11 04:44:35;;;;;;;30.97;20.23;;;;;;;-0.27;100.00;100914.44;5286833;28;20055;-86
2022/12/11 04:47:06;;;;;;;25.87;18.50;;;;;;;-0.23;100.00;100916.28;5286191;28;20037;-85
2022/12/11 04:49:37;;;;;;;28.33;18.63;;;;;;;-0.22;100.00;100912.91;5287133;28;20380;-85
2022/12/11 04:52:09;;;;;;;29.23;19.50;;;;;;;-0.21;100.00;100914.66;5286838;28;20035;-85
2022/12/11 04:54:40;;;;;;;25.67;19.30;;;;;;;-0.22;100.00;100909.50;5293153;28;20074;-84
2022/12/11 04:57:12;;;;;;;32.30;21.83;;;;;;;-0.20;100.00;100912.97;5289531;28;20078;-85
2022/12/11 04:59:43;;;;;;;25.23;18.90;;;;;;;-0.20;100.00;100911.25;5287510;28;20055;-85
2022/12/11 05:02:15;;;;;;;35.33;21.27;;;;;;;-0.20;100.00;100913.81;5292757;28;20036;-83
2022/12/11 05:04:46;;;;;;;29.57;20.10;;;;;;;-0.20;100.00;100906.13;5287125;28;20107;-83
2022/12/11 05:07:18;;;;;;;31.17;19.90;;;;;;;-0.22;100.00;100909.50;5270699;28;20772;-84
2022/12/11 05:09:49;;;;;;;28.83;20.37;;;;;;;-0.23;100.00;100905.16;5295876;28;20080;-84
2022/12/11 05:12:20;;;;;;;29.27;20.33;;;;;;;-0.21;100.00;100908.66;5309042;28;20028;-84
2022/12/11 05:14:52;;;;;;;28.50;18.87;;;;;;;-0.22;100.00;100909.50;5282472;28;20037;-84
2022/12/11 05:17:24;;;;;;;26.92;18.52;;;;;;;-0.20;100.00;100905.28;5295269;28;20024;-83
2022/12/11 05:19:55;;;;;;;33.57;21.53;;;;;;;-0.20;100.00;100905.28;5291086;28;20499;-82
2022/12/11 05:22:29;;;;;;;27.67;19.73;;;;;;;-0.19;100.00;100901.91;5287389;28;20039;-82
2022/12/11 05:25:00;;;;;;;29.02;20.38;;;;;;;-0.24;100.00;100903.41;5272955;28;20027;-85
2022/12/11 05:27:32;;;;;;;27.90;18.57;;;;;;;-0.23;100.00;100900.03;5287492;28;20032;-85
2022/12/11 05:30:04;;;;;;;27.37;19.57;;;;;;;-0.20;100.00;100901.00;5286367;28;20059;-84
2022/12/11 05:32:35;;;;;;;25.85;18.70;;;;;;;-0.21;100.00;100894.16;5286558;28;20111;-84
2022/12/11 05:35:07;;;;;;;30.27;19.33;;;;;;;-0.23;100.00;100893.22;5286105;28;20028;-85
2022/12/11 05:37:38;;;;;;;29.63;20.70;;;;;;;-0.17;100.00;100897.69;5286194;28;20036;-84
2022/12/11 05:40:14;;;;;;;26.27;18.53;;;;;;;-0.19;100.00;100895.06;5286991;28;20116;-84
2022/12/11 05:42:45;;;;;;;30.45;19.08;;;;;;;-0.19;100.00;100886.53;5285658;28;20037;-84
2022/12/11 05:45:17;;;;;;;27.50;20.53;;;;;;;-0.16;100.00;100893.44;5252890;28;20357;-85
2022/12/11 05:47:49;;;;;;;23.70;17.15;;;;;;;-0.16;100.00;100896.00;5286494;28;20036;-84
2022/12/11 05:50:21;;;;;;;25.07;17.87;;;;;;;-0.16;100.00;100903.69;5270233;28;20086;-83
2022/12/11 05:52:52;;;;;;;25.00;16.83;;;;;;;-0.16;100.00;100898.56;5290857;28;20426;-83
2022/12/11 05:55:23;;;;;;;24.70;16.93;;;;;;;-0.15;100.00;100903.72;5292370;28;20064;-83
2022/12/11 05:57:55;;;;;;;22.93;16.67;;;;;;;-0.15;100.00;100902.88;5294142;28;20063;-84
2022/12/11 06:00:26;;;;;;;22.80;17.00;;;;;;;-0.14;100.00;100913.16;5294682;28;20135;-84
2022/12/11 06:02:57;;;;;;;22.23;16.33;;;;;;;-0.14;100.00;100907.19;5289137;28;20142;-85
2022/12/11 06:05:29;;;;;;;24.93;17.40;;;;;;;-0.14;100.00;100908.03;5286426;28;20024;-84
2022/12/11 06:08:00;;;;;;;25.03;17.17;;;;;;;-0.12;100.00;100903.84;5285368;28;20032;-83
2022/12/11 06:10:31;;;;;;;23.13;17.10;;;;;;;-0.12;100.00;100902.97;5285163;28;20507;-84
2022/12/11 06:13:03;;;;;;;22.80;16.50;;;;;;;-0.11;100.00;100907.25;5285787;28;20040;-83
2022/12/11 06:15:34;;;;;;;24.90;16.57;;;;;;;-0.11;100.00;100904.69;5287656;28;20024;-84
2022/12/11 06:18:06;;;;;;;26.63;17.77;;;;;;;-0.09;100.00;100905.63;5295648;28;20029;-82
2022/12/11 06:20:37;;;;;;;23.57;16.97;;;;;;;-0.09;100.00;100908.19;5291417;28;20050;-83
2022/12/11 06:23:09;;;;;;;21.97;15.83;;;;;;;-0.13;100.00;100901.22;5272734;28;20063;-83
2022/12/11 06:25:40;;;;;;;26.47;15.97;;;;;;;-0.09;100.00;100898.81;5286259;28;20040;-83
2022/12/11 06:28:12;;;;;;;21.00;16.13;;;;;;;-0.09;100.00;100898.81;5266808;28;20033;-83
2022/12/11 06:30:43;;;;;;;24.17;16.77;;;;;;;-0.07;100.00;100897.16;5267056;28;20020;-83
2022/12/11 06:33:15;;;;;;;23.55;16.40;;;;;;;-0.09;100.00;100897.94;5266743;28;20028;-84
2022/12/11 06:35:46;;;;;;;22.73;15.80;;;;;;;-0.06;100.00;100903.19;5266450;28;20090;-83
2022/12/11 06:38:18;;;;;;;23.03;15.97;;;;;;;-0.05;100.00;100897.22;5284450;28;20068;-83
2022/12/11 06:40:57;;;;;;;22.03;15.90;;;;;;;-0.05;100.00;100900.66;5284304;28;20025;-82
2022/12/11 06:43:28;;;;;;;24.67;16.65;;;;;;;-0.07;100.00;100903.97;5266745;28;20037;-83
2022/12/11 06:46:08;;;;;;;26.07;16.30;;;;;;;-0.04;100.00;100904.09;5284038;28;20032;-83
2022/12/11 06:48:41;;;;;;;23.38;17.00;;;;;;;-0.02;100.00;100892.19;5284483;28;20035;-84
2022/12/11 06:51:18;;;;;;;23.13;16.25;;;;;;;-0.01;100.00;100892.22;5284308;28;20039;-83
2022/12/11 06:53:51;;;;;;;21.83;15.32;;;;;;;-0.04;100.00;100893.84;5284407;28;20430;-83
2022/12/11 06:56:23;;;;;;;25.48;16.73;;;;;;;-0.04;100.00;100886.16;5284591;28;20139;-83
2022/12/11 06:58:55;;;;;;;21.07;15.43;;;;;;;-0.06;100.00;100893.78;5266408;28;20538;-83
2022/12/11 07:01:27;;;;;;;23.30;16.38;;;;;;;-0.05;100.00;100892.97;5284003;28;20263;-83
2022/12/11 07:03:59;;;;;;;23.67;15.77;;;;;;;-0.01;100.00;100889.66;5284299;28;20043;-83
2022/12/11 07:06:30;;;;;;;21.17;16.43;;;;;;;-0.02;100.00;100899.88;5284308;28;20029;-83
2022/12/11 07:09:05;;;;;;;26.53;18.00;;;;;;;-0.02;100.00;100907.56;5284082;28;20043;-83
2022/12/11 07:11:37;;;;;;;20.58;16.33;;;;;;;-0.02;100.00;100905.00;5285241;28;20048;-82
2022/12/11 07:14:08;;;;;;;23.57;16.83;;;;;;;-0.01;100.00;100905.03;5266663;28;20071;-81
2022/12/11 07:16:39;;;;;;;24.33;17.33;;;;;;;-0.02;100.00;100907.56;5285518;28;20033;-83
2022/12/11 07:19:11;;;;;;;25.87;16.33;;;;;;;-0.03;100.00;100913.53;5292011;28;20040;-82
2022/12/11 07:21:42;;;;;;;25.70;18.50;;;;;;;-0.03;100.00;100914.38;5292117;28;20043;-82
2022/12/11 07:24:14;;;;;;;22.57;16.40;;;;;;;0.01;100.00;100909.38;5288561;28;20051;-82
2022/12/11 07:26:45;;;;;;;23.20;17.43;;;;;;;-0.04;100.00;100920.31;5286617;28;20032;-82
2022/12/11 07:29:17;;;;;;;24.40;16.90;;;;;;;-0.02;100.00;100923.84;5284227;28;20037;-83
2022/12/11 07:31:49;;;;;;;23.17;16.87;;;;;;;-0.02;100.00;100918.69;5283901;28;20275;-83
2022/12/11 07:34:20;;;;;;;25.50;17.23;;;;;;;-0.01;100.00;100927.25;5284367;28;20420;-83
2022/12/11 07:36:52;;;;;;;26.80;17.13;;;;;;;-0.02;100.00;100926.41;5283888;28;20082;-84
2022/12/11 07:39:23;;;;;;;24.87;17.23;;;;;;;0.04;100.00;100922.28;5266324;28;20036;-83
2022/12/11 07:41:55;;;;;;;23.00;17.53;;;;;;;0.02;100.00;100913.66;5284183;28;20082;-84
2022/12/11 07:44:26;;;;;;;27.00;19.13;;;;;;;0.01;100.00;100914.50;5266473;28;20503;-83
2022/12/11 07:46:57;;;;;;;23.87;18.30;;;;;;;0.01;100.00;100920.47;5284223;28;20114;-84
2022/12/11 07:49:29;;;;;;;27.33;17.43;;;;;;;-0.01;100.00;100911.88;5284290;28;20108;-84
2022/12/11 07:52:00;;;;;;;28.33;18.87;;;;;;;0.01;100.00;100914.50;5283311;28;20112;-84
2022/12/11 07:54:31;;;;;;;26.43;17.97;;;;;;;0.02;100.00;100921.34;5284297;28;20028;-84
2022/12/11 07:57:03;;;;;;;29.13;19.30;;;;;;;0.02;100.00;100922.22;5284973;28;20488;-84
2022/12/11 07:59:34;;;;;;;28.53;18.47;;;;;;;0.01;100.00;100919.63;5284047;28;20134;-78
2022/12/11 08:02:06;;;;;;;27.93;18.73;;;;;;;0.01;100.00;100919.63;5283292;28;20468;-79
2022/12/11 08:04:37;;;;;;;29.13;18.53;;;;;;;0.01;100.00;100914.50;5265736;28;20044;-79
2022/12/11 08:07:09;;;;;;;26.15;17.65;;;;;;;0.02;100.00;100916.22;5283410;28;20115;-80
2022/12/11 08:09:40;;;;;;;26.13;18.27;;;;;;;0.01;100.00;100924.75;5266039;28;20044;-79
2022/12/11 08:12:12;;;;;;;26.90;17.97;;;;;;;0.01;100.00;100922.19;5283527;28;20039;-78
2022/12/11 08:14:43;;;;;;;27.30;18.90;;;;;;;-0.01;100.00;100917.88;5265288;28;20037;-79
2022/12/11 08:17:14;;;;;;;27.57;18.33;;;;;;;-0.04;100.00;100922.03;5283369;28;20048;-79
2022/12/11 08:19:46;;;;;;;30.60;18.77;;;;;;;-0.04;100.00;100920.31;5283539;28;20313;-78
2022/12/11 08:22:17;;;;;;;27.23;19.43;;;;;;;-0.02;100.00;100918.69;5283752;28;20527;-79
2022/12/11 08:24:49;;;;;;;30.83;19.80;;;;;;;-0.03;100.00;100919.50;5283769;28;20032;-81
2022/12/11 08:27:20;;;;;;;31.40;18.60;;;;;;;-0.01;100.00;100915.31;5283806;28;20086;-84
2022/12/11 08:29:52;;;;;;;26.47;19.03;;;;;;;-0.02;100.00;100923.84;5290008;28;20380;-84
2022/12/11 08:32:23;;;;;;;24.63;17.30;;;;;;;-0.03;100.00;100923.78;5271192;28;20071;-81
2022/12/11 08:34:54;;;;;;;28.97;18.80;;;;;;;-0.02;100.00;100923.84;5291424;28;20044;-81
2022/12/11 08:37:26;;;;;;;27.70;19.90;;;;;;;-0.06;100.00;100924.53;5303281;28;20032;-82
2022/12/11 08:39:57;;;;;;;28.20;17.93;;;;;;;-0.03;100.00;100923.78;5302594;28;20040;-81
2022/12/11 08:42:29;;;;;;;27.50;18.83;;;;;;;-0.01;100.00;100917.88;5303975;28;20044;-81
2022/12/11 08:45:00;;;;;;;29.60;18.57;;;;;;;0.03;100.00;100915.41;5304571;28;20035;-81
2022/12/11 08:47:31;;;;;;;29.10;19.20;;;;;;;0.01;100.00;100920.47;5296302;28;20533;-82
2022/12/11 08:50:03;;;;;;;25.93;19.07;;;;;;;0.02;100.00;100916.22;5296909;28;20103;-81
2022/12/11 08:52:35;;;;;;;27.17;18.60;;;;;;;0.03;100.00;100915.41;5293656;28;20467;-82
2022/12/11 08:55:07;;;;;;;28.63;20.47;;;;;;;0.02;100.00;100917.09;5289399;28;20041;-81
2022/12/11 08:57:38;;;;;;;30.97;19.53;;;;;;;0.05;100.00;100911.19;5293894;28;20122;-81
2022/12/11 09:00:12;;;;;;;29.73;18.90;;;;;;;0.04;100.00;100918.00;5293864;28;20037;-82
2022/12/11 09:02:43;;;;;;;26.73;18.75;;;;;;;0.05;100.00;100908.63;5275922;28;20060;-82
2022/12/11 09:05:15;;;;;;;25.10;16.43;;;;;;;0.07;100.00;100914.69;5293130;28;20380;-83
2022/12/11 09:07:46;;;;;;;26.87;18.23;;;;;;;0.05;100.00;100908.63;5275640;28;20025;-82
2022/12/11 09:10:18;;;;;;;27.00;19.10;;;;;;;0.05;100.00;100911.19;5293162;28;20029;-82
2022/12/11 09:12:49;;;;;;;28.90;18.23;;;;;;;0.06;100.00;100908.66;5291475;28;20033;-82
2022/12/11 09:15:20;;;;;;;27.23;18.33;;;;;;;0.06;100.00;100908.66;5291043;28;20067;-82
2022/12/11 09:17:52;;;;;;;32.20;19.57;;;;;;;0.08;100.00;100912.19;5290053;28;20032;-81
2022/12/11 09:20:23;;;;;;;27.37;18.20;;;;;;;0.05;100.00;100917.22;5289196;28;20090;-82
2022/12/11 09:22:55;;;;;;;30.73;19.87;;;;;;;0.07;100.00;100907.00;5292718;28;20032;-82
2022/12/11 09:25:26;;;;;;;32.33;21.27;;;;;;;0.09;100.00;100908.78;5302921;28;20097;-81
2022/12/11 09:27:58;;;;;;;28.53;17.27;;;;;;;0.06;100.00;100908.66;5303542;28;20056;-81
2022/12/11 09:30:29;;;;;;;30.60;18.07;;;;;;;0.07;100.00;100909.56;5291175;28;20040;-80
2022/12/11 09:33:01;;;;;;;31.70;19.83;;;;;;;0.09;100.00;100916.47;5291373;28;20035;-82
2022/12/11 09:35:32;;;;;;;30.40;19.20;;;;;;;0.08;100.00;100913.84;5290354;28;20064;-82
2022/12/11 09:38:03;;;;;;;27.50;18.27;;;;;;;0.06;100.00;100911.22;5292012;28;20032;-82
2022/12/11 09:40:42;;;;;;;30.37;19.63;;;;;;;0.09;100.00;100901.09;5305317;28;20020;-81
2022/12/11 09:43:29;;;;;;;25.63;18.38;;;;;;;0.09;100.00;100908.78;5309222;28;20032;-82
2022/12/11 09:46:05;;;;;;;29.13;20.13;;;;;;;0.15;100.00;100906.41;5309355;28;20101;-82
2022/12/11 09:48:40;;;;;;;27.92;19.60;;;;;;;0.18;100.00;100903.94;5303616;28;20387;-81
2022/12/11 09:51:26;;;;;;;30.60;19.95;;;;;;;0.14;100.00;100906.34;5286518;28;20047;-81
2022/12/11 09:54:02;;;;;;;31.77;20.00;;;;;;;0.14;100.00;100906.34;5286829;28;20063;-81
2022/12/11 09:56:54;;;;;;;26.55;17.88;;;;;;;0.15;100.00;100897.84;5286549;28;20438;-80
2022/12/11 09:59:50;;;;;;;26.33;18.42;;;;;;;0.13;100.00;100899.47;5285920;28;20032;-81
2022/12/11 10:06:12;;;;;;;34.17;17.73;;;;;;;0.28;100.00;100886.28;5286695;28;20065;-82
2022/12/11 10:09:11;;;;;;;26.58;18.10;;;;;;;0.28;100.00;100889.72;5232437;28;20037;-82
2022/12/11 10:11:55;;;;;;;27.50;17.58;;;;;;;0.29;100.00;100878.66;5285559;28;20379;-81
2022/12/11 10:14:42;;;;;;;25.48;16.98;;;;;;;0.30;100.00;100888.06;5285835;28;20375;-84
2022/12/11 10:17:26;;;;;;;28.10;18.00;;;;;;;0.25;100.00;100894.75;5285605;28;20111;-84
2022/12/11 10:20:22;;;;;;;27.83;18.40;;;;;;;0.27;100.00;100887.97;5268016;28;20048;-82
2022/12/11 10:22:55;;;;;;;28.77;18.08;;;;;;;0.29;100.00;100894.03;5285671;28;20021;-82
2022/12/11 10:25:35;;;;;;;28.67;18.30;;;;;;;0.31;100.00;100899.22;5287745;28;20025;-82
2022/12/11 10:28:15;;;;;;;29.30;18.17;;;;;;;0.28;100.00;100902.53;5284913;28;20028;-82
2022/12/11 10:31:01;;;;;;;29.85;18.60;;;;;;;0.31;100.00;100894.09;5293139;28;20459;-82
2022/12/11 10:33:50;;;;;;;27.48;17.38;;;;;;;0.31;100.00;100894.09;5288429;28;20444;-82
2022/12/11 10:36:34;;;;;;;28.15;17.95;;;;;;;0.31;100.00;100894.94;5287249;28;20033;-82
2022/12/11 10:39:18;;;;;;;30.48;18.58;;;;;;;0.30;100.00;100885.50;5285095;28;20468;-82
2022/12/11 10:41:51;;;;;;;28.45;18.27;;;;;;;0.30;100.00;100887.19;5286982;28;20089;-82
2022/12/11 10:44:25;;;;;;;26.25;17.83;;;;;;;0.28;100.00;100884.59;5272629;28;20036;-83
2022/12/11 10:47:12;;;;;;;25.50;17.58;;;;;;;0.36;100.00;100882.25;5295830;28;20025;-82
2022/12/11 10:49:57;;;;;;;24.65;16.67;;;;;;;0.35;100.00;100872.81;5292920;28;20025;-82
2022/12/11 10:52:37;;;;;;;25.65;16.92;;;;;;;0.36;100.00;100878.00;5287053;28;20044;-83
2022/12/11 10:55:24;;;;;;;25.55;17.27;;;;;;;0.42;99.86;100858.47;5284656;28;20116;-85
2022/12/11 10:58:00;;;;;;;27.52;18.23;;;;;;;0.39;99.50;100869.53;5285762;28;20328;-83
2022/12/11 11:00:40;;;;;;;23.65;15.63;;;;;;;0.48;99.39;100862.13;5284759;28;20542;-86
2022/12/11 11:03:24;;;;;;;29.08;17.38;;;;;;;0.59;99.60;100859.00;5285849;28;20024;-83
2022/12/11 11:06:25;;;;;;;24.15;16.45;;;;;;;0.65;99.30;100861.75;5286329;28;20025;-82
2022/12/11 11:08:58;;;;;;;24.15;16.15;;;;;;;0.64;98.87;100852.28;5269740;28;20040;-83
2022/12/11 11:11:36;;;;;;;25.83;16.98;;;;;;;0.69;97.97;100858.41;5288141;28;20056;-84
2022/12/11 11:14:08;;;;;;;28.77;16.85;;;;;;;0.84;98.51;100858.00;5291257;28;20383;-84
2022/12/11 11:16:43;;;;;;;29.77;18.97;;;;;;;0.87;97.74;100858.06;5271000;28;20096;-83
2022/12/11 11:19:22;;;;;;;27.85;18.08;;;;;;;1.01;98.03;100856.75;5289899;28;20024;-82
2022/12/11 11:22:00;;;;;;;27.38;17.73;;;;;;;1.02;96.45;100850.78;5296406;28;20032;-83
2022/12/11 11:24:34;;;;;;;28.27;17.83;;;;;;;1.02;95.84;100855.94;5293504;28;20155;-82
2022/12/11 11:27:19;;;;;;;26.35;17.15;;;;;;;0.99;95.73;100860.97;5278938;28;20056;-83
2022/12/11 11:29:54;;;;;;;29.42;18.05;;;;;;;1.02;96.19;100855.06;5295663;28;20029;-83
2022/12/11 11:32:32;;;;;;;24.75;17.85;;;;;;;0.98;95.14;100856.66;5294674;28;20025;-83
2022/12/11 11:35:10;;;;;;;26.27;17.63;;;;;;;1.01;95.61;100859.31;5291393;28;20063;-83
2022/12/11 11:37:46;;;;;;;25.30;16.95;;;;;;;1.03;95.60;100851.66;5279327;28;20070;-83
2022/12/11 11:40:23;;;;;;;23.17;16.45;;;;;;;1.07;95.40;100849.22;5291077;28;20037;-83
2022/12/11 11:43:12;;;;;;;24.80;17.90;;;;;;;1.12;94.65;100848.47;5289645;28;20055;-83
2022/12/11 11:45:52;;;;;;;25.48;17.13;;;;;;;1.24;94.73;100849.69;5288688;28;20035;-83
2022/12/11 11:49:06;;;;;;;24.25;17.02;;;;;;;1.49;94.92;100847.72;5286442;28;20029;-83
2022/12/11 11:51:45;;;;;;;24.00;16.63;;;;;;;1.64;94.08;100845.56;5208658;28;20052;-84